createdAt,value
2024-02-23T00:00:48.327Z,42.93
2024-02-23T00:01:38.323Z,38.51
2024-02-23T00:02:28.533Z,42.50
2024-02-23T00:03:18.425Z,37.86
2024-02-23T00:04:08.566Z,43.31
2024-02-23T00:04:58.622Z,42.51
2024-02-23T00:05:48.638Z,40.98
2024-02-23T00:06:38.712Z,41.12
2024-02-23T00:07:28.726Z,38.01
2024-02-23T00:08:18.835Z,38.59
2024-02-23T00:09:08.867Z,40.13
2024-02-23T00:09:59.188Z,42.74
2024-02-23T00:10:49.367Z,42.69
2024-02-23T00:11:39.419Z,38.88
2024-02-23T00:12:29.653Z,42.29
2024-02-23T00:13:19.698Z,36.29
2024-02-23T00:14:09.894Z,42.32
2024-02-23T00:15:00.121Z,42.35
2024-02-23T00:15:50.211Z,42.06
2024-02-23T00:16:40.220Z,43.73
2024-02-23T00:17:30.327Z,40.93
2024-02-23T00:18:20.413Z,40.67
2024-02-23T00:19:10.479Z,47.35
2024-02-23T00:20:00.510Z,46.93
2024-02-23T00:20:50.537Z,44.31
2024-02-23T00:21:40.646Z,49.96
2024-02-23T00:22:30.720Z,48.74
2024-02-23T00:23:20.835Z,42.56
2024-02-23T00:24:10.854Z,47.15
2024-02-23T00:25:00.914Z,44.08
2024-02-23T00:25:51.022Z,36.04
2024-02-23T00:26:41.012Z,31.96
2024-02-23T00:27:31.080Z,31.91
2024-02-23T00:28:21.164Z,29.55
2024-02-23T00:29:11.244Z,30.19
2024-02-23T00:30:01.278Z,34.93
2024-02-23T00:30:51.580Z,29.67
2024-02-23T00:31:41.612Z,33.77
2024-02-23T00:32:31.766Z,35.61
2024-02-23T00:33:21.763Z,30.58
2024-02-23T00:34:12.109Z,31.24
2024-02-23T00:35:01.861Z,33.66
2024-02-23T00:35:51.904Z,36.55
2024-02-23T00:36:41.923Z,36.59
2024-02-23T00:37:32.091Z,29.60
2024-02-23T00:38:22.187Z,32.21
2024-02-23T00:39:12.189Z,29.58
2024-02-23T00:40:02.257Z,27.43
2024-02-23T00:40:52.377Z,29.85
2024-02-23T00:41:42.385Z,33.15
2024-02-23T00:42:32.443Z,26.86
2024-02-23T00:43:22.510Z,32.60
2024-02-23T00:44:12.632Z,31.10
2024-02-23T00:45:02.634Z,31.32
2024-02-23T00:45:52.730Z,25.00
2024-02-23T00:46:43.004Z,28.07
2024-02-23T00:47:33.152Z,31.65
2024-02-23T00:48:23.170Z,33.34
2024-02-23T00:49:13.271Z,31.10
2024-02-23T00:50:03.379Z,23.23
2024-02-23T00:50:53.304Z,23.50
2024-02-23T00:51:43.319Z,21.31
2024-02-23T00:52:33.392Z,24.45
2024-02-23T00:53:23.585Z,19.60
2024-02-23T00:54:13.538Z,31.01
2024-02-23T00:55:03.609Z,27.27
2024-02-23T00:55:54.088Z,30.18
2024-02-23T00:56:50.522Z,26.56
2024-02-23T00:57:35.054Z,26.63
2024-02-23T00:58:24.075Z,26.61
2024-02-23T00:59:14.172Z,24.92
2024-02-23T01:00:04.282Z,23.26
2024-02-23T01:00:54.307Z,18.30
2024-02-23T01:01:44.300Z,16.92
2024-02-23T01:02:34.560Z,25.45
2024-02-23T01:03:24.654Z,26.36
2024-02-23T01:04:14.718Z,27.36
2024-02-23T01:05:04.775Z,31.38
2024-02-23T01:05:55.155Z,30.47
2024-02-23T01:06:45.226Z,31.74
2024-02-23T01:07:35.223Z,28.70
2024-02-23T01:08:25.663Z,30.63
2024-02-23T01:09:15.604Z,36.04
2024-02-23T01:10:05.679Z,32.09
2024-02-23T01:10:55.855Z,35.49
2024-02-23T01:11:45.845Z,36.62
2024-02-23T01:12:35.857Z,36.51
2024-02-23T01:13:26.096Z,38.97
2024-02-23T01:14:16.007Z,38.22
2024-02-23T01:15:06.422Z,34.48
2024-02-23T01:15:56.157Z,39.83
2024-02-23T01:16:46.185Z,40.17
2024-02-23T01:17:36.316Z,32.68
2024-02-23T01:18:26.373Z,37.78
2024-02-23T01:19:16.384Z,38.36
2024-02-23T01:20:06.414Z,37.75
2024-02-23T01:20:56.454Z,37.83
2024-02-23T01:21:46.463Z,36.27
2024-02-23T01:22:36.587Z,38.43
2024-02-23T01:23:26.634Z,37.84
2024-02-23T01:24:16.661Z,40.00
2024-02-23T01:25:06.724Z,39.79
2024-02-23T01:25:56.849Z,42.64
2024-02-23T01:26:46.838Z,45.70
2024-02-23T01:27:36.909Z,47.66
2024-02-23T01:28:26.988Z,48.91
2024-02-23T01:29:17.066Z,52.52
2024-02-23T01:30:07.090Z,52.94
2024-02-23T01:30:57.182Z,51.77
2024-02-23T01:31:47.306Z,55.01
2024-02-23T01:32:37.397Z,52.60
2024-02-23T01:33:27.357Z,53.66
2024-02-23T01:34:17.502Z,50.88
2024-02-23T01:35:07.413Z,44.39
2024-02-23T01:35:57.519Z,43.54
2024-02-23T01:36:47.511Z,54.25
2024-02-23T01:37:37.600Z,47.93
2024-02-23T01:38:27.938Z,48.54
2024-02-23T01:39:17.904Z,50.12
2024-02-23T01:40:07.976Z,56.04
2024-02-23T01:40:58.100Z,52.22
2024-02-23T01:41:48.100Z,50.39
2024-02-23T01:42:38.178Z,54.78
2024-02-23T01:43:28.237Z,56.47
2024-02-23T01:44:18.665Z,59.29
2024-02-23T01:45:08.393Z,55.38
2024-02-23T01:45:58.437Z,58.49
2024-02-23T01:46:48.489Z,50.67
2024-02-23T01:47:38.929Z,49.95
2024-02-23T01:48:28.915Z,57.29
2024-02-23T01:49:18.965Z,51.15
2024-02-23T01:50:09.048Z,55.52
2024-02-23T01:50:59.092Z,53.22
2024-02-23T01:51:49.055Z,56.12
2024-02-23T01:52:39.137Z,56.99
2024-02-23T01:53:29.299Z,58.27
2024-02-23T01:54:19.296Z,62.73
2024-02-23T01:55:09.396Z,60.01
2024-02-23T01:55:59.505Z,62.64
2024-02-23T01:56:49.546Z,62.54
2024-02-23T01:57:49.363Z,64.08
2024-02-23T01:58:30.592Z,64.15
2024-02-23T01:59:19.672Z,64.31
2024-02-23T02:00:09.706Z,64.33
2024-02-23T02:00:59.802Z,62.15
2024-02-23T02:01:49.833Z,62.26
2024-02-23T02:02:39.874Z,61.04
2024-02-23T02:03:29.977Z,63.91
2024-02-23T02:04:20.248Z,66.44
2024-02-23T02:05:10.294Z,64.17
2024-02-23T02:06:01.344Z,55.98
2024-02-23T02:06:50.402Z,64.08
2024-02-23T02:07:40.411Z,61.49
2024-02-23T02:08:30.499Z,65.58
2024-02-23T02:09:20.481Z,57.56
2024-02-23T02:10:10.545Z,64.71
2024-02-23T02:11:00.742Z,62.54
2024-02-23T02:11:50.726Z,63.37
2024-02-23T02:12:40.721Z,71.09
2024-02-23T02:13:30.807Z,69.13
2024-02-23T02:14:20.884Z,61.75
2024-02-23T02:15:10.941Z,61.54
2024-02-23T02:16:01.002Z,58.60
2024-02-23T02:16:51.103Z,56.66
2024-02-23T02:17:41.188Z,57.73
2024-02-23T02:18:31.229Z,57.19
2024-02-23T02:19:21.267Z,53.92
2024-02-23T02:20:11.462Z,47.96
2024-02-23T02:21:01.496Z,45.55
2024-02-23T02:21:51.571Z,49.49
2024-02-23T02:22:41.852Z,47.85
2024-02-23T02:23:32.027Z,41.79
2024-02-23T02:24:21.980Z,44.71
2024-02-23T02:25:12.301Z,41.36
2024-02-23T02:26:02.542Z,43.36
2024-02-23T02:26:52.418Z,42.32
2024-02-23T02:27:42.749Z,41.66
2024-02-23T02:28:32.817Z,41.17
2024-02-23T02:29:23.014Z,38.87
2024-02-23T02:30:13.206Z,36.46
2024-02-23T02:31:03.281Z,35.51
2024-02-23T02:31:53.331Z,43.46
2024-02-23T02:32:43.639Z,40.62
2024-02-23T02:33:33.488Z,37.19
2024-02-23T02:34:23.540Z,42.07
2024-02-23T02:35:13.775Z,36.19
2024-02-23T02:36:03.608Z,39.90
2024-02-23T02:36:53.679Z,37.34
2024-02-23T02:37:43.755Z,30.84
2024-02-23T02:38:33.886Z,35.69
2024-02-23T02:39:23.892Z,33.94
2024-02-23T02:40:14.006Z,35.53
2024-02-23T02:41:04.117Z,26.53
2024-02-23T02:41:54.108Z,29.86
2024-02-23T02:42:44.183Z,30.06
2024-02-23T02:43:34.371Z,32.40
2024-02-23T02:44:24.477Z,24.71
2024-02-23T02:45:16.245Z,27.88
2024-02-23T02:46:04.542Z,25.00
2024-02-23T02:46:54.653Z,29.35
2024-02-23T02:47:44.719Z,27.31
2024-02-23T02:48:34.766Z,27.37
2024-02-23T02:49:24.773Z,31.75
2024-02-23T02:50:14.860Z,29.24
2024-02-23T02:51:04.921Z,26.80
2024-02-23T02:51:54.965Z,28.34
2024-02-23T02:52:45.042Z,32.03
2024-02-23T02:53:35.130Z,34.49
2024-02-23T02:54:25.390Z,38.48
2024-02-23T02:55:15.443Z,35.58
2024-02-23T02:56:05.603Z,34.10
2024-02-23T02:56:55.565Z,35.31
2024-02-23T02:57:45.603Z,41.97
2024-02-23T02:58:35.673Z,38.41
2024-02-23T02:59:28.598Z,39.41
2024-02-23T03:00:15.783Z,39.49
2024-02-23T03:01:05.894Z,39.87
2024-02-23T03:01:55.987Z,40.30
2024-02-23T03:02:45.963Z,40.48
2024-02-23T03:03:36.093Z,43.13
2024-02-23T03:04:26.168Z,40.09
2024-02-23T03:05:16.139Z,41.83
2024-02-23T03:06:06.286Z,44.78
2024-02-23T03:06:56.286Z,45.40
2024-02-23T03:07:46.284Z,44.72
2024-02-23T03:08:36.392Z,49.17
2024-02-23T03:09:26.398Z,41.59
2024-02-23T03:10:16.510Z,43.56
2024-02-23T03:11:06.637Z,43.19
2024-02-23T03:11:56.681Z,43.91
2024-02-23T03:12:46.683Z,44.79
2024-02-23T03:13:36.738Z,44.25
2024-02-23T03:14:27.048Z,47.19
2024-02-23T03:15:16.870Z,51.25
2024-02-23T03:16:06.937Z,50.35
2024-02-23T03:16:57.035Z,47.02
2024-02-23T03:17:47.084Z,52.13
2024-02-23T03:18:37.067Z,47.27
2024-02-23T03:19:27.228Z,49.43
2024-02-23T03:20:17.266Z,49.19
2024-02-23T03:21:07.239Z,47.74
2024-02-23T03:21:57.291Z,47.79
2024-02-23T03:22:47.359Z,44.08
2024-02-23T03:23:37.457Z,40.03
2024-02-23T03:24:27.526Z,46.63
2024-02-23T03:25:17.552Z,44.02
2024-02-23T03:26:07.727Z,44.70
2024-02-23T03:26:57.766Z,46.15
2024-02-23T03:27:47.709Z,42.54
2024-02-23T03:28:37.746Z,48.60
2024-02-23T03:29:27.956Z,46.99
2024-02-23T03:30:17.977Z,44.26
2024-02-23T03:31:08.137Z,42.75
2024-02-23T03:31:58.340Z,46.03
2024-02-23T03:32:48.608Z,43.09
2024-02-23T03:33:38.617Z,42.10
2024-02-23T03:34:28.508Z,41.06
2024-02-23T03:35:18.620Z,47.19
2024-02-23T03:36:08.653Z,45.70
2024-02-23T03:36:58.730Z,48.02
2024-02-23T03:37:48.774Z,40.84
2024-02-23T03:38:38.920Z,46.34
2024-02-23T03:39:28.876Z,46.97
2024-02-23T03:40:18.912Z,52.47
2024-02-23T03:41:09.036Z,50.19
2024-02-23T03:41:59.292Z,48.68
2024-02-23T03:42:49.329Z,51.35
2024-02-23T03:43:39.497Z,47.22
2024-02-23T03:44:29.554Z,51.85
2024-02-23T03:45:19.501Z,54.25
2024-02-23T03:46:09.567Z,50.36
2024-02-23T03:46:59.681Z,50.17
2024-02-23T03:47:49.937Z,50.89
2024-02-23T03:48:39.793Z,52.11
2024-02-23T03:49:29.979Z,57.90
2024-02-23T03:50:19.950Z,54.66
2024-02-23T03:51:09.983Z,52.96
2024-02-23T03:52:00.073Z,54.56
2024-02-23T03:52:50.158Z,55.21
2024-02-23T03:53:40.186Z,58.68
2024-02-23T03:54:30.282Z,54.98
2024-02-23T03:55:20.333Z,57.45
2024-02-23T03:56:10.412Z,52.63
2024-02-23T03:57:00.495Z,53.27
2024-02-23T03:57:50.691Z,57.82
2024-02-23T03:58:40.721Z,60.70
2024-02-23T03:59:30.811Z,58.00
2024-02-23T04:00:20.849Z,58.02
2024-02-23T04:01:10.948Z,58.04
2024-02-23T04:02:01.056Z,58.11
2024-02-23T04:02:51.057Z,59.06
2024-02-23T04:03:41.149Z,59.14
2024-02-23T04:04:31.223Z,55.43
2024-02-23T04:05:21.301Z,59.45
2024-02-23T04:06:11.296Z,53.10
2024-02-23T04:07:01.614Z,50.21
2024-02-23T04:07:51.693Z,48.98
2024-02-23T04:08:41.668Z,54.91
2024-02-23T04:09:31.731Z,54.35
2024-02-23T04:10:21.817Z,54.40
2024-02-23T04:11:11.970Z,51.40
2024-02-23T04:12:02.138Z,56.71
2024-02-23T04:12:52.022Z,52.16
2024-02-23T04:13:42.068Z,53.96
2024-02-23T04:14:32.202Z,55.89
2024-02-23T04:15:22.200Z,58.01
2024-02-23T04:16:12.276Z,53.88
2024-02-23T04:17:02.353Z,59.55
2024-02-23T04:17:52.441Z,59.64
2024-02-23T04:18:42.434Z,55.59
2024-02-23T04:19:32.484Z,53.92
2024-02-23T04:20:22.558Z,57.98
2024-02-23T04:21:12.555Z,54.75
2024-02-23T04:22:02.643Z,58.53
2024-02-23T04:22:52.691Z,56.39
2024-02-23T04:23:42.750Z,53.40
2024-02-23T04:24:32.811Z,56.66
2024-02-23T04:25:22.877Z,61.24
2024-02-23T04:26:13.032Z,60.55
2024-02-23T04:27:03.014Z,65.75
2024-02-23T04:27:53.070Z,55.09
2024-02-23T04:28:43.156Z,59.06
2024-02-23T04:29:33.553Z,60.44
2024-02-23T04:30:23.485Z,56.89
2024-02-23T04:31:13.560Z,61.18
2024-02-23T04:32:03.671Z,58.45
2024-02-23T04:32:53.704Z,59.14
2024-02-23T04:33:43.833Z,64.16
2024-02-23T04:34:33.876Z,61.15
2024-02-23T04:35:23.870Z,62.55
2024-02-23T04:36:13.906Z,67.07
2024-02-23T04:37:04.012Z,72.79
2024-02-23T04:37:54.045Z,77.37
2024-02-23T04:38:44.078Z,80.80
2024-02-23T04:39:34.151Z,85.20
2024-02-23T04:40:24.214Z,81.74
2024-02-23T04:41:14.286Z,83.51
2024-02-23T04:42:04.377Z,80.71
2024-02-23T04:42:54.434Z,78.67
2024-02-23T04:43:44.431Z,73.53
2024-02-23T04:44:34.597Z,77.20
2024-02-23T04:45:24.559Z,73.30
2024-02-23T04:46:14.624Z,68.29
2024-02-23T04:47:04.767Z,67.64
2024-02-23T04:47:54.784Z,67.21
2024-02-23T04:48:44.851Z,65.86
2024-02-23T04:49:34.891Z,66.80
2024-02-23T04:50:25.050Z,63.22
2024-02-23T04:51:14.981Z,67.97
2024-02-23T04:52:05.227Z,69.54
2024-02-23T04:52:55.318Z,71.72
2024-02-23T04:53:45.370Z,67.88
2024-02-23T04:54:35.770Z,73.58
2024-02-23T04:55:25.748Z,72.04
2024-02-23T04:56:15.819Z,67.79
2024-02-23T04:57:05.949Z,74.54
2024-02-23T04:57:55.895Z,69.56
2024-02-23T04:58:45.911Z,77.54
2024-02-23T04:59:36.005Z,71.95
2024-02-23T05:00:26.039Z,74.96
2024-02-23T05:01:16.179Z,75.84
2024-02-23T05:02:06.215Z,80.61
2024-02-23T05:02:56.274Z,79.90
2024-02-23T05:03:46.441Z,74.82
2024-02-23T05:04:36.358Z,74.03
2024-02-23T05:05:26.414Z,70.44
2024-02-23T05:06:16.532Z,67.95
2024-02-23T05:07:06.519Z,73.76
2024-02-23T05:07:56.805Z,69.32
2024-02-23T05:08:46.838Z,71.00
2024-02-23T05:09:36.952Z,70.78
2024-02-23T05:10:27.192Z,66.66
2024-02-23T05:11:17.308Z,63.41
2024-02-23T05:12:07.518Z,67.71
2024-02-23T05:12:57.427Z,68.08
2024-02-23T05:13:47.446Z,66.71
2024-02-23T05:14:37.546Z,66.25
2024-02-23T05:15:27.533Z,67.13
2024-02-23T05:16:17.607Z,66.40
2024-02-23T05:17:07.744Z,65.94
2024-02-23T05:17:57.784Z,65.76
2024-02-23T05:18:47.800Z,63.54
2024-02-23T05:19:37.902Z,69.29
2024-02-23T05:20:27.979Z,66.25
2024-02-23T05:21:17.959Z,68.55
2024-02-23T05:22:08.039Z,68.81
2024-02-23T05:22:58.115Z,63.74
2024-02-23T05:23:48.100Z,65.47
2024-02-23T05:24:38.171Z,63.59
2024-02-23T05:25:28.206Z,58.32
2024-02-23T05:26:18.305Z,62.26
2024-02-23T05:27:08.329Z,56.94
2024-02-23T05:27:58.351Z,56.96
2024-02-23T05:28:48.444Z,57.02
2024-02-23T05:29:38.481Z,63.69
2024-02-23T05:30:28.538Z,53.94
2024-02-23T05:31:18.615Z,57.58
2024-02-23T05:32:08.745Z,56.93
2024-02-23T05:32:58.737Z,55.62
2024-02-23T05:33:49.937Z,59.19
2024-02-23T05:34:38.922Z,59.29
2024-02-23T05:35:28.916Z,59.22
2024-02-23T05:36:18.952Z,58.62
2024-02-23T05:37:09.031Z,59.25
2024-02-23T05:37:59.142Z,59.32
2024-02-23T05:38:49.117Z,56.70
2024-02-23T05:39:39.203Z,53.77
2024-02-23T05:40:29.278Z,52.87
2024-02-23T05:41:19.370Z,52.47
2024-02-23T05:42:09.401Z,55.88
2024-02-23T05:42:59.501Z,52.93
2024-02-23T05:43:49.772Z,57.31
2024-02-23T05:44:39.828Z,54.03
2024-02-23T05:45:29.826Z,52.86
2024-02-23T05:46:19.892Z,51.35
2024-02-23T05:47:09.993Z,52.92
2024-02-23T05:48:00.194Z,59.17
2024-02-23T05:48:50.208Z,57.19
2024-02-23T05:49:40.164Z,55.05
2024-02-23T05:50:30.309Z,53.58
2024-02-23T05:51:20.274Z,55.68
2024-02-23T05:52:10.382Z,55.40
2024-02-23T05:53:00.675Z,57.95
2024-02-23T05:53:50.677Z,54.25
2024-02-23T05:54:40.752Z,59.38
2024-02-23T05:55:30.814Z,53.73
2024-02-23T05:56:20.922Z,61.08
2024-02-23T05:57:10.949Z,51.98
2024-02-23T05:58:00.978Z,54.59
2024-02-23T05:58:51.097Z,53.13
2024-02-23T05:59:41.114Z,62.45
2024-02-23T06:00:31.247Z,56.20
2024-02-23T06:01:21.217Z,58.81
2024-02-23T06:02:11.469Z,59.29
2024-02-23T06:03:01.489Z,55.72
2024-02-23T06:03:51.566Z,54.90
2024-02-23T06:04:41.616Z,53.39
2024-02-23T06:05:31.835Z,55.07
2024-02-23T06:06:21.891Z,51.48
2024-02-23T06:07:11.804Z,56.16
2024-02-23T06:08:01.844Z,55.05
2024-02-23T06:08:51.871Z,55.72
2024-02-23T06:09:41.956Z,56.53
2024-02-23T06:10:32.011Z,55.78
2024-02-23T06:11:22.453Z,53.56
2024-02-23T06:12:12.550Z,55.38
2024-02-23T06:13:04.580Z,53.42
2024-02-23T06:13:52.573Z,53.62
2024-02-23T06:14:42.552Z,54.03
2024-02-23T06:15:32.613Z,54.39
2024-02-23T06:16:22.701Z,54.49
2024-02-23T06:17:12.804Z,52.44
2024-02-23T06:18:02.839Z,53.13
2024-02-23T06:18:52.880Z,57.97
2024-02-23T06:19:42.982Z,57.92
2024-02-23T06:20:33.343Z,54.75
2024-02-23T06:21:23.298Z,59.53
2024-02-23T06:22:13.416Z,51.61
2024-02-23T06:23:03.683Z,57.06
2024-02-23T06:23:53.735Z,49.20
2024-02-23T06:24:43.798Z,50.99
2024-02-23T06:25:34.125Z,57.53
2024-02-23T06:26:24.252Z,53.51
2024-02-23T06:27:14.237Z,50.79
2024-02-23T06:28:04.551Z,50.78
2024-02-23T06:28:54.659Z,48.79
2024-02-23T06:29:44.692Z,51.27
2024-02-23T06:30:35.001Z,49.34
2024-02-23T06:31:25.088Z,52.37
2024-02-23T06:32:15.175Z,55.68
2024-02-23T06:33:05.244Z,49.84
2024-02-23T06:33:55.339Z,53.57
2024-02-23T06:34:45.304Z,57.51
2024-02-23T06:35:35.414Z,56.76
2024-02-23T06:36:25.413Z,57.63
2024-02-23T06:37:15.514Z,59.52
2024-02-23T06:38:05.562Z,56.92
2024-02-23T06:38:55.589Z,59.28
2024-02-23T06:39:45.670Z,60.32
2024-02-23T06:40:45.902Z,59.16
2024-02-23T06:41:26.821Z,59.29
2024-02-23T06:42:15.841Z,59.98
2024-02-23T06:43:05.868Z,59.23
2024-02-23T06:43:56.021Z,60.95
2024-02-23T06:44:45.978Z,55.46
2024-02-23T06:45:36.038Z,60.40
2024-02-23T06:46:26.104Z,57.69
2024-02-23T06:47:16.500Z,55.04
2024-02-23T06:48:06.487Z,56.91
2024-02-23T06:48:56.613Z,57.55
2024-02-23T06:49:46.768Z,60.23
2024-02-23T06:50:37.190Z,59.57
2024-02-23T06:51:26.889Z,56.40
2024-02-23T06:52:17.219Z,57.92
2024-02-23T06:53:07.370Z,55.78
2024-02-23T06:53:57.348Z,58.43
2024-02-23T06:54:47.673Z,58.93
2024-02-23T06:55:37.759Z,53.16
2024-02-23T06:56:27.823Z,54.36
2024-02-23T06:57:17.854Z,54.61
2024-02-23T06:58:07.894Z,52.03
2024-02-23T06:58:57.948Z,46.40
2024-02-23T06:59:47.992Z,50.71
2024-02-23T07:00:38.073Z,47.89
2024-02-23T07:01:28.131Z,49.53
2024-02-23T07:02:18.272Z,46.31
2024-02-23T07:03:08.275Z,50.74
2024-02-23T07:03:58.591Z,49.37
2024-02-23T07:04:48.591Z,52.07
2024-02-23T07:05:38.905Z,51.81
2024-02-23T07:06:28.728Z,50.54
2024-02-23T07:07:18.806Z,50.99
2024-02-23T07:08:08.840Z,51.46
2024-02-23T07:08:58.898Z,54.83
2024-02-23T07:09:48.986Z,55.74
2024-02-23T07:10:39.044Z,53.08
2024-02-23T07:11:29.167Z,50.98
2024-02-23T07:12:19.330Z,50.63
2024-02-23T07:13:09.482Z,54.35
2024-02-23T07:13:59.583Z,50.80
2024-02-23T07:14:49.621Z,54.11
2024-02-23T07:15:39.950Z,53.37
2024-02-23T07:16:29.977Z,56.07
2024-02-23T07:17:20.099Z,56.26
2024-02-23T07:18:10.213Z,53.41
2024-02-23T07:19:00.178Z,54.93
2024-02-23T07:19:50.249Z,56.93
2024-02-23T07:20:40.370Z,62.08
2024-02-23T07:21:30.304Z,60.06
2024-02-23T07:22:20.462Z,58.89
2024-02-23T07:23:10.530Z,60.26
2024-02-23T07:24:00.557Z,60.58
2024-02-23T07:24:50.678Z,57.97
2024-02-23T07:25:40.675Z,61.02
2024-02-23T07:26:30.931Z,61.99
2024-02-23T07:27:20.811Z,59.40
2024-02-23T07:28:10.838Z,63.88
2024-02-23T07:29:00.923Z,59.86
2024-02-23T07:29:51.057Z,61.25
2024-02-23T07:30:41.006Z,57.23
2024-02-23T07:31:31.071Z,57.31
2024-02-23T07:32:21.251Z,57.49
2024-02-23T07:33:11.213Z,58.99
2024-02-23T07:34:01.465Z,59.74
2024-02-23T07:34:51.324Z,62.68
2024-02-23T07:35:41.433Z,62.86
2024-02-23T07:36:31.450Z,64.75
2024-02-23T07:37:21.523Z,69.44
2024-02-23T07:38:11.602Z,59.35
2024-02-23T07:39:01.609Z,66.72
2024-02-23T07:39:51.673Z,62.23
2024-02-23T07:40:41.752Z,60.46
2024-02-23T07:41:31.895Z,58.43
2024-02-23T07:42:22.017Z,61.88
2024-02-23T07:43:12.031Z,59.66
2024-02-23T07:44:02.137Z,62.88
2024-02-23T07:44:52.435Z,58.74
2024-02-23T07:45:42.509Z,59.47
2024-02-23T07:46:32.583Z,58.45
2024-02-23T07:47:22.970Z,61.76
2024-02-23T07:48:13.051Z,66.41
2024-02-23T07:49:03.116Z,58.43
2024-02-23T07:49:53.364Z,61.20
2024-02-23T07:50:43.445Z,61.94
2024-02-23T07:51:33.449Z,63.29
2024-02-23T07:52:23.527Z,60.51
2024-02-23T07:53:13.528Z,59.10
2024-02-23T07:54:03.558Z,58.77
2024-02-23T07:54:53.604Z,56.40
2024-02-23T07:55:43.670Z,53.50
2024-02-23T07:56:33.887Z,58.69
2024-02-23T07:57:23.843Z,63.28
2024-02-23T07:58:13.866Z,56.73
2024-02-23T07:59:03.972Z,59.31
2024-02-23T07:59:53.990Z,63.20
2024-02-23T08:00:44.102Z,68.32
2024-02-23T08:01:34.135Z,66.73
2024-02-23T08:02:24.264Z,64.14
2024-02-23T08:03:14.238Z,67.92
2024-02-23T08:04:04.302Z,64.67
2024-02-23T08:04:54.468Z,65.78
2024-02-23T08:05:44.423Z,66.11
2024-02-23T08:06:34.498Z,64.14
2024-02-23T08:07:24.515Z,61.88
2024-02-23T08:08:14.579Z,65.46
2024-02-23T08:09:04.643Z,65.07
2024-02-23T08:09:54.719Z,61.60
2024-02-23T08:10:44.740Z,64.86
2024-02-23T08:11:37.052Z,68.82
2024-02-23T08:12:24.967Z,60.68
2024-02-23T08:13:14.934Z,60.62
2024-02-23T08:14:05.096Z,63.76
2024-02-23T08:14:55.074Z,61.76
2024-02-23T08:15:45.124Z,58.49
2024-02-23T08:16:35.202Z,60.39
2024-02-23T08:17:25.371Z,62.49
2024-02-23T08:18:15.355Z,63.24
2024-02-23T08:19:05.418Z,63.26
2024-02-23T08:19:55.557Z,64.83
2024-02-23T08:20:45.877Z,61.14
2024-02-23T08:21:35.880Z,64.29
2024-02-23T08:22:25.940Z,61.83
2024-02-23T08:23:16.008Z,61.75
2024-02-23T08:24:06.017Z,64.55
2024-02-23T08:24:56.084Z,65.15
2024-02-23T08:25:46.151Z,69.60
2024-02-23T08:26:36.293Z,69.27
2024-02-23T08:27:26.300Z,67.26
2024-02-23T08:28:16.350Z,70.14
2024-02-23T08:29:06.517Z,70.37
2024-02-23T08:29:56.503Z,67.85
2024-02-23T08:30:46.512Z,70.08
2024-02-23T08:31:41.171Z,66.05
2024-02-23T08:32:26.780Z,63.23
2024-02-23T08:33:16.783Z,66.72
2024-02-23T08:34:06.796Z,66.94
2024-02-23T08:34:56.837Z,64.03
2024-02-23T08:35:46.902Z,67.78
2024-02-23T08:36:37.137Z,67.81
2024-02-23T08:37:26.989Z,70.32
2024-02-23T08:38:17.188Z,65.21
2024-02-23T08:39:07.099Z,62.24
2024-02-23T08:39:57.161Z,60.64
2024-02-23T08:40:47.484Z,61.27
2024-02-23T08:41:37.586Z,68.42
2024-02-23T08:42:27.593Z,62.48
2024-02-23T08:43:17.674Z,60.91
2024-02-23T08:44:07.707Z,63.04
2024-02-23T08:44:57.760Z,60.99
2024-02-23T08:45:47.785Z,63.45
2024-02-23T08:46:37.886Z,65.04
2024-02-23T08:47:27.995Z,63.72
2024-02-23T08:48:18.091Z,66.95
2024-02-23T08:49:08.130Z,61.09
2024-02-23T08:49:58.361Z,66.60
2024-02-23T08:50:48.438Z,61.31
2024-02-23T08:51:38.474Z,61.51
2024-02-23T08:52:28.571Z,60.61
2024-02-23T08:53:18.737Z,62.86
2024-02-23T08:54:08.660Z,61.40
2024-02-23T08:54:58.685Z,62.86
2024-02-23T08:55:48.752Z,64.65
2024-02-23T08:56:38.946Z,61.34
2024-02-23T08:57:28.873Z,61.42
2024-02-23T08:58:18.905Z,66.20
2024-02-23T08:59:09.012Z,64.38
2024-02-23T08:59:59.044Z,62.70
2024-02-23T09:00:49.157Z,64.44
2024-02-23T09:01:39.174Z,67.58
2024-02-23T09:02:29.309Z,70.32
2024-02-23T09:03:19.273Z,70.64
2024-02-23T09:04:09.345Z,67.44
2024-02-23T09:04:59.688Z,65.64
2024-02-23T09:05:49.701Z,64.35
2024-02-23T09:06:40.478Z,64.54
2024-02-23T09:07:29.855Z,66.69
2024-02-23T09:08:19.904Z,63.76
2024-02-23T09:09:10.030Z,70.02
2024-02-23T09:10:00.218Z,66.13
2024-02-23T09:10:50.197Z,63.84
2024-02-23T09:11:40.250Z,61.71
2024-02-23T09:12:30.288Z,63.26
2024-02-23T09:13:20.342Z,61.63
2024-02-23T09:14:10.454Z,64.23
2024-02-23T09:15:00.471Z,62.07
2024-02-23T09:15:50.501Z,62.24
2024-02-23T09:16:40.603Z,61.53
2024-02-23T09:17:30.803Z,63.08
2024-02-23T09:18:20.980Z,61.79
2024-02-23T09:19:11.056Z,64.46
2024-02-23T09:20:01.145Z,67.07
2024-02-23T09:20:51.230Z,57.92
2024-02-23T09:21:41.173Z,66.95
2024-02-23T09:22:31.252Z,67.05
2024-02-23T09:23:21.306Z,57.77
2024-02-23T09:24:11.342Z,60.58
2024-02-23T09:25:01.454Z,63.62
2024-02-23T09:25:51.592Z,62.89
2024-02-23T09:26:41.640Z,60.06
2024-02-23T09:27:31.886Z,61.15
2024-02-23T09:28:21.915Z,58.07
2024-02-23T09:29:12.022Z,57.85
2024-02-23T09:30:02.104Z,56.20
2024-02-23T09:30:52.098Z,59.81
2024-02-23T09:31:42.169Z,58.53
2024-02-23T09:32:32.362Z,60.02
2024-02-23T09:33:22.387Z,54.11
2024-02-23T09:34:12.409Z,55.88
2024-02-23T09:35:02.542Z,58.79
2024-02-23T09:35:52.512Z,61.52
2024-02-23T09:36:44.833Z,63.86
2024-02-23T09:37:32.666Z,61.21
2024-02-23T09:38:22.859Z,60.64
2024-02-23T09:39:12.868Z,55.37
2024-02-23T09:40:02.938Z,57.74
2024-02-23T09:40:53.049Z,57.54
2024-02-23T09:41:43.115Z,51.42
2024-02-23T09:42:33.186Z,57.48
2024-02-23T09:43:23.171Z,58.26
2024-02-23T09:44:13.224Z,55.23
2024-02-23T09:45:03.280Z,56.57
2024-02-23T09:45:53.303Z,53.88
2024-02-23T09:46:43.382Z,53.25
2024-02-23T09:47:33.802Z,53.50
2024-02-23T09:48:23.897Z,54.67
2024-02-23T09:49:13.831Z,60.11
2024-02-23T09:50:03.977Z,56.92
2024-02-23T09:50:53.928Z,55.00
2024-02-23T09:51:43.997Z,52.88
2024-02-23T09:52:34.122Z,57.62
2024-02-23T09:53:24.131Z,53.69
2024-02-23T09:54:14.926Z,52.96
2024-02-23T09:55:04.246Z,49.98
2024-02-23T09:55:54.457Z,50.12
2024-02-23T09:56:44.672Z,48.93
2024-02-23T09:57:34.723Z,52.79
2024-02-23T09:58:24.729Z,45.27
2024-02-23T09:59:15.098Z,48.48
2024-02-23T10:00:05.132Z,51.84
2024-02-23T10:00:55.206Z,48.87
2024-02-23T10:01:45.529Z,51.20
2024-02-23T10:02:35.648Z,50.01
2024-02-23T10:03:25.677Z,45.82
2024-02-23T10:04:15.687Z,49.51
2024-02-23T10:05:05.859Z,48.09
2024-02-23T10:05:55.855Z,50.22
2024-02-23T10:06:45.967Z,53.48
2024-02-23T10:07:36.052Z,45.74
2024-02-23T10:08:26.114Z,45.68
2024-02-23T10:09:16.005Z,44.67
2024-02-23T10:10:06.088Z,47.86
2024-02-23T10:10:56.506Z,48.66
2024-02-23T10:11:46.574Z,47.66
2024-02-23T10:12:36.605Z,44.68
2024-02-23T10:13:26.610Z,49.80
2024-02-23T10:14:16.648Z,48.40
2024-02-23T10:15:06.726Z,52.30
2024-02-23T10:16:05.929Z,50.37
2024-02-23T10:16:47.840Z,50.44
2024-02-23T10:17:37.230Z,50.65
2024-02-23T10:18:27.081Z,51.60
2024-02-23T10:19:17.136Z,54.04
2024-02-23T10:20:07.177Z,54.00
2024-02-23T10:20:57.141Z,56.38
2024-02-23T10:21:47.176Z,58.96
2024-02-23T10:22:37.371Z,52.59
2024-02-23T10:23:27.393Z,49.81
2024-02-23T10:24:17.468Z,57.39
2024-02-23T10:25:07.531Z,52.35
2024-02-23T10:25:57.688Z,51.53
2024-02-23T10:26:47.708Z,47.03
2024-02-23T10:27:37.753Z,50.65
2024-02-23T10:28:27.775Z,50.24
2024-02-23T10:29:19.351Z,52.93
2024-02-23T10:30:07.878Z,50.83
2024-02-23T10:30:57.940Z,48.23
2024-02-23T10:31:48.224Z,46.26
2024-02-23T10:32:38.421Z,50.82
2024-02-23T10:33:28.389Z,50.76
2024-02-23T10:34:18.472Z,54.34
2024-02-23T10:35:08.608Z,47.92
2024-02-23T10:35:58.600Z,48.08
2024-02-23T10:36:48.616Z,48.72
2024-02-23T10:37:38.707Z,50.42
2024-02-23T10:38:28.816Z,50.98
2024-02-23T10:39:18.803Z,53.44
2024-02-23T10:40:08.839Z,60.63
2024-02-23T10:40:58.932Z,57.04
2024-02-23T10:41:48.986Z,57.95
2024-02-23T10:42:39.331Z,58.68
2024-02-23T10:43:29.358Z,53.77
2024-02-23T10:44:19.519Z,51.63
2024-02-23T10:45:09.513Z,49.60